BAW585 LIMC-EGLL
Flight info
| Callsign | BAW585 |
|---|---|
| Flight time | 1h 29m |
| Altitude | 36000 |
| Route | AOSTA5X AOSTA DCT ORSUD DCT MOLUS DCT IBODI DCT GOTED DCT TRO DCT CLM DCT KOPOR DCT ABNUR DCT DIMAL DCT ALESO ALESO1H |
| Aircraft | A320/M-SDE3FGHIJ1RWXY/S |
Departure
| Time | 2026-05-06 13:23 |
|---|---|
| Airport | Milan Malpensa International Airport (LIMC) |
Arrival
| Time | 2026-05-06 14:52 |
|---|---|
| Airport | London Heathrow Airport (EGLL) |
| Time | Latitude | Longitude | Altitude | Speed | Heading |
|---|---|---|---|---|---|
| 2026-05-06 12:50 | 45.63008 | 8.71411 | 739 ft | 0 kts | 12° |
| 2026-05-06 13:12 | 45.62999 | 8.71408 | 740 ft | 4 kts | 10° |
| 2026-05-06 13:12 | 45.62972 | 8.71403 | 738 ft | 4 kts | 2° |
| 2026-05-06 13:12 | 45.62945 | 8.71404 | 738 ft | 4 kts | 355° |
| 2026-05-06 13:12 | 45.62918 | 8.71408 | 740 ft | 4 kts | 349° |
| 2026-05-06 13:13 | 45.62910 | 8.71411 | 740 ft | 0 kts | 348° |
| 2026-05-06 13:15 | 45.62914 | 8.71413 | 740 ft | 1 kts | 18° |
| 2026-05-06 13:15 | 45.62922 | 8.71435 | 740 ft | 4 kts | 62° |
| 2026-05-06 13:15 | 45.62935 | 8.71488 | 741 ft | 7 kts | 75° |
| 2026-05-06 13:16 | 45.62948 | 8.71565 | 740 ft | 9 kts | 76° |
| 2026-05-06 13:16 | 45.62960 | 8.71665 | 740 ft | 11 kts | 82° |
| 2026-05-06 13:16 | 45.62974 | 8.71788 | 740 ft | 14 kts | 79° |
| 2026-05-06 13:16 | 45.62993 | 8.71929 | 741 ft | 12 kts | 80° |
| 2026-05-06 13:17 | 45.62991 | 8.72031 | 741 ft | 11 kts | 120° |
| 2026-05-06 13:17 | 45.62915 | 8.72069 | 741 ft | 14 kts | 170° |
| 2026-05-06 13:17 | 45.62805 | 8.72098 | 741 ft | 17 kts | 169° |
| 2026-05-06 13:17 | 45.62682 | 8.72132 | 741 ft | 19 kts | 169° |
| 2026-05-06 13:18 | 45.62546 | 8.72170 | 740 ft | 21 kts | 168° |
| 2026-05-06 13:18 | 45.62396 | 8.72213 | 741 ft | 23 kts | 169° |
| 2026-05-06 13:18 | 45.62275 | 8.72244 | 740 ft | 12 kts | 169° |
| 2026-05-06 13:18 | 45.62225 | 8.72329 | 741 ft | 13 kts | 94° |
| 2026-05-06 13:19 | 45.62238 | 8.72415 | 741 ft | 14 kts | 77° |
| 2026-05-06 13:19 | 45.62258 | 8.72565 | 741 ft | 17 kts | 79° |
| 2026-05-06 13:19 | 45.62282 | 8.72738 | 741 ft | 19 kts | 78° |
| 2026-05-06 13:19 | 45.62306 | 8.72920 | 741 ft | 14 kts | 81° |
| 2026-05-06 13:20 | 45.62293 | 8.73023 | 741 ft | 11 kts | 147° |
| 2026-05-06 13:20 | 45.62206 | 8.73048 | 742 ft | 15 kts | 169° |
| 2026-05-06 13:20 | 45.62094 | 8.73078 | 741 ft | 17 kts | 169° |
| 2026-05-06 13:20 | 45.61969 | 8.73112 | 742 ft | 19 kts | 169° |
| 2026-05-06 13:21 | 45.61830 | 8.73150 | 742 ft | 21 kts | 168° |
| 2026-05-06 13:21 | 45.61730 | 8.73234 | 742 ft | 16 kts | 126° |
| 2026-05-06 13:21 | 45.61661 | 8.73377 | 742 ft | 18 kts | 123° |
| 2026-05-06 13:21 | 45.61591 | 8.73541 | 742 ft | 20 kts | 110° |
| 2026-05-06 13:22 | 45.61605 | 8.73696 | 741 ft | 16 kts | 69° |
| 2026-05-06 13:22 | 45.61718 | 8.73714 | 741 ft | 26 kts | 350° |
| 2026-05-06 13:22 | 45.62126 | 8.73602 | 742 ft | 91 kts | 348° |
| 2026-05-06 13:22 | 45.62918 | 8.73381 | 742 ft | 138 kts | 349° |
| 2026-05-06 13:23 | 45.63966 | 8.73075 | 992 ft | 159 kts | 348° |
| 2026-05-06 13:23 | 45.65060 | 8.72777 | 1597 ft | 162 kts | 351° |
| 2026-05-06 13:23 | 45.66213 | 8.72518 | 2082 ft | 175 kts | 354° |
| 2026-05-06 13:23 | 45.67500 | 8.72398 | 2403 ft | 195 kts | 359° |
| 2026-05-06 13:24 | 45.68939 | 8.72353 | 2711 ft | 220 kts | 0° |
| 2026-05-06 13:24 | 45.70567 | 8.72343 | 3099 ft | 242 kts | 1° |
| 2026-05-06 13:24 | 45.72263 | 8.72165 | 3879 ft | 247 kts | 338° |
| 2026-05-06 13:24 | 45.73580 | 8.70685 | 5031 ft | 241 kts | 297° |
| 2026-05-06 13:25 | 45.73995 | 8.68384 | 5797 ft | 242 kts | 261° |
| 2026-05-06 13:25 | 45.73549 | 8.66095 | 6738 ft | 238 kts | 245° |
| 2026-05-06 13:25 | 45.72876 | 8.63938 | 7672 ft | 237 kts | 243° |
| 2026-05-06 13:25 | 45.72183 | 8.61794 | 8583 ft | 238 kts | 243° |
| 2026-05-06 13:26 | 45.71370 | 8.59722 | 9443 ft | 241 kts | 234° |
| 2026-05-06 13:26 | 45.70350 | 8.57669 | 9829 ft | 264 kts | 234° |
| 2026-05-06 13:26 | 45.69297 | 8.55382 | 10134 ft | 287 kts | 236° |
| 2026-05-06 13:26 | 45.68192 | 8.52869 | 10365 ft | 310 kts | 237° |
| 2026-05-06 13:27 | 45.67027 | 8.50184 | 10847 ft | 322 kts | 237° |
| 2026-05-06 13:27 | 45.65834 | 8.47452 | 11552 ft | 326 kts | 237° |
| 2026-05-06 13:27 | 45.64620 | 8.44693 | 12294 ft | 329 kts | 236° |
| 2026-05-06 13:27 | 45.63389 | 8.41917 | 13049 ft | 332 kts | 236° |
| 2026-05-06 13:28 | 45.62014 | 8.39257 | 13772 ft | 335 kts | 229° |
| 2026-05-06 13:28 | 45.60516 | 8.36694 | 14436 ft | 338 kts | 232° |
| 2026-05-06 13:28 | 45.59329 | 8.33779 | 15075 ft | 343 kts | 246° |
| 2026-05-06 13:28 | 45.58701 | 8.30465 | 15703 ft | 350 kts | 260° |
| 2026-05-06 13:29 | 45.58703 | 8.26972 | 16334 ft | 357 kts | 275° |
| 2026-05-06 13:29 | 45.59341 | 8.23507 | 16983 ft | 364 kts | 285° |
| 2026-05-06 13:29 | 45.60154 | 8.20060 | 17623 ft | 368 kts | 285° |
| 2026-05-06 13:29 | 45.60971 | 8.16579 | 18248 ft | 371 kts | 285° |
| 2026-05-06 13:30 | 45.61788 | 8.13075 | 18862 ft | 373 kts | 284° |
| 2026-05-06 13:30 | 45.62606 | 8.09544 | 19518 ft | 375 kts | 284° |
| 2026-05-06 13:30 | 45.63424 | 8.06006 | 20187 ft | 376 kts | 283° |
| 2026-05-06 13:30 | 45.64246 | 8.02439 | 20860 ft | 378 kts | 283° |
| 2026-05-06 13:31 | 45.65067 | 7.98869 | 21404 ft | 378 kts | 283° |
| 2026-05-06 13:31 | 45.65888 | 7.95289 | 21965 ft | 381 kts | 283° |
| 2026-05-06 13:31 | 45.66712 | 7.91690 | 22543 ft | 382 kts | 282° |
| 2026-05-06 13:31 | 45.67528 | 7.88120 | 23085 ft | 384 kts | 282° |
| 2026-05-06 13:32 | 45.68372 | 7.84428 | 23630 ft | 387 kts | 281° |
| 2026-05-06 13:32 | 45.69199 | 7.80810 | 24085 ft | 389 kts | 281° |
| 2026-05-06 13:32 | 45.70038 | 7.77122 | 24466 ft | 391 kts | 281° |
| 2026-05-06 13:32 | 45.70884 | 7.73403 | 24874 ft | 395 kts | 281° |
| 2026-05-06 13:33 | 45.71736 | 7.69656 | 25311 ft | 398 kts | 281° |
| 2026-05-06 13:33 | 45.72594 | 7.65879 | 25751 ft | 400 kts | 281° |
| 2026-05-06 13:33 | 45.73455 | 7.62093 | 26209 ft | 401 kts | 281° |
| 2026-05-06 13:33 | 45.74318 | 7.58295 | 26586 ft | 403 kts | 281° |
| 2026-05-06 13:34 | 45.75183 | 7.54458 | 26943 ft | 407 kts | 281° |
| 2026-05-06 13:34 | 45.76052 | 7.50574 | 27329 ft | 411 kts | 281° |
| 2026-05-06 13:34 | 45.76936 | 7.46617 | 27735 ft | 413 kts | 281° |
| 2026-05-06 13:34 | 45.77804 | 7.42731 | 28136 ft | 416 kts | 281° |
| 2026-05-06 13:35 | 45.78890 | 7.38834 | 28533 ft | 428 kts | 289° |
| 2026-05-06 13:35 | 45.80473 | 7.35155 | 28909 ft | 441 kts | 300° |
| 2026-05-06 13:35 | 45.82555 | 7.31838 | 29274 ft | 455 kts | 310° |
| 2026-05-06 13:35 | 45.85088 | 7.29019 | 29642 ft | 466 kts | 317° |
| 2026-05-06 13:36 | 45.87753 | 7.26337 | 30022 ft | 469 kts | 317° |
| 2026-05-06 13:36 | 45.90423 | 7.23639 | 30343 ft | 471 kts | 317° |
| 2026-05-06 13:36 | 45.93105 | 7.20915 | 30708 ft | 471 kts | 317° |
| 2026-05-06 13:36 | 45.95773 | 7.18193 | 31152 ft | 470 kts | 317° |
| 2026-05-06 13:37 | 45.98431 | 7.15474 | 31613 ft | 469 kts | 317° |
| 2026-05-06 13:37 | 46.01087 | 7.12750 | 32064 ft | 468 kts | 317° |
| 2026-05-06 13:37 | 46.03733 | 7.10030 | 32493 ft | 467 kts | 318° |
| 2026-05-06 13:37 | 46.06379 | 7.07308 | 32969 ft | 466 kts | 318° |
| 2026-05-06 13:38 | 46.09015 | 7.04597 | 33410 ft | 465 kts | 318° |
| 2026-05-06 13:38 | 46.11649 | 7.01891 | 33846 ft | 465 kts | 318° |
| 2026-05-06 13:38 | 46.14279 | 6.99187 | 34232 ft | 463 kts | 318° |
| 2026-05-06 13:38 | 46.16898 | 6.96491 | 34623 ft | 462 kts | 319° |
| 2026-05-06 13:39 | 46.19513 | 6.93798 | 34928 ft | 462 kts | 319° |
| 2026-05-06 13:39 | 46.22127 | 6.91104 | 35256 ft | 462 kts | 319° |
| 2026-05-06 13:39 | 46.24739 | 6.88409 | 35590 ft | 461 kts | 319° |
| 2026-05-06 13:39 | 46.27349 | 6.85705 | 35864 ft | 461 kts | 319° |
| 2026-05-06 13:40 | 46.29955 | 6.82997 | 35925 ft | 462 kts | 319° |
| 2026-05-06 13:40 | 46.35173 | 6.77558 | 35919 ft | 462 kts | 319° |
| 2026-05-06 13:41 | 46.40395 | 6.72114 | 35919 ft | 463 kts | 319° |
| 2026-05-06 13:41 | 46.45436 | 6.66391 | 35922 ft | 457 kts | 309° |
| 2026-05-06 13:42 | 46.49830 | 6.59754 | 35917 ft | 456 kts | 309° |
| 2026-05-06 13:42 | 46.54220 | 6.53098 | 35921 ft | 456 kts | 309° |
| 2026-05-06 13:43 | 46.58613 | 6.46440 | 35923 ft | 456 kts | 309° |
| 2026-05-06 13:43 | 46.63010 | 6.39774 | 35928 ft | 457 kts | 309° |
| 2026-05-06 13:44 | 46.67400 | 6.33090 | 35931 ft | 457 kts | 309° |
| 2026-05-06 13:44 | 46.71773 | 6.26375 | 35930 ft | 457 kts | 309° |
| 2026-05-06 13:45 | 46.76145 | 6.19651 | 35930 ft | 457 kts | 309° |
| 2026-05-06 13:45 | 46.82725 | 6.09555 | 35929 ft | 458 kts | 310° |
| 2026-05-06 13:46 | 46.87103 | 6.02813 | 35919 ft | 457 kts | 309° |
| 2026-05-06 13:46 | 46.91470 | 5.96047 | 35929 ft | 457 kts | 309° |
| 2026-05-06 13:47 | 46.96129 | 5.89700 | 35922 ft | 462 kts | 322° |
| 2026-05-06 13:47 | 47.01773 | 5.85097 | 35922 ft | 466 kts | 329° |
| 2026-05-06 13:48 | 47.07519 | 5.80694 | 35924 ft | 466 kts | 329° |
| 2026-05-06 13:48 | 47.13251 | 5.76252 | 35924 ft | 466 kts | 329° |
| 2026-05-06 13:49 | 47.18982 | 5.71809 | 35922 ft | 466 kts | 329° |
| 2026-05-06 13:49 | 47.24716 | 5.67379 | 35916 ft | 466 kts | 329° |
| 2026-05-06 13:50 | 47.30446 | 5.62934 | 35914 ft | 465 kts | 329° |
| 2026-05-06 13:50 | 47.36170 | 5.58477 | 35905 ft | 465 kts | 329° |
| 2026-05-06 13:51 | 47.41893 | 5.54010 | 35898 ft | 466 kts | 329° |
| 2026-05-06 13:51 | 47.47614 | 5.49527 | 35892 ft | 465 kts | 329° |
| 2026-05-06 13:52 | 47.52873 | 5.44137 | 35880 ft | 457 kts | 313° |
| 2026-05-06 13:52 | 47.56877 | 5.36920 | 35874 ft | 453 kts | 303° |
| 2026-05-06 13:53 | 47.60621 | 5.29388 | 35872 ft | 454 kts | 303° |
| 2026-05-06 13:53 | 47.64368 | 5.21845 | 35882 ft | 455 kts | 304° |
| 2026-05-06 13:54 | 47.68113 | 5.14289 | 35880 ft | 454 kts | 304° |
| 2026-05-06 13:54 | 47.71843 | 5.06720 | 35879 ft | 454 kts | 303° |
| 2026-05-06 13:55 | 47.75569 | 4.99131 | 35884 ft | 455 kts | 303° |
| 2026-05-06 13:55 | 47.79292 | 4.91537 | 35888 ft | 455 kts | 304° |
| 2026-05-06 13:56 | 47.83020 | 4.83929 | 35891 ft | 455 kts | 304° |
| 2026-05-06 13:56 | 47.86738 | 4.76309 | 35890 ft | 455 kts | 304° |
| 2026-05-06 13:57 | 47.90455 | 4.68666 | 35897 ft | 455 kts | 303° |
| 2026-05-06 13:57 | 47.94161 | 4.61017 | 35899 ft | 455 kts | 303° |
| 2026-05-06 13:58 | 47.97861 | 4.53361 | 35901 ft | 455 kts | 303° |
| 2026-05-06 13:58 | 48.00937 | 4.46981 | 35905 ft | 455 kts | 303° |
| 2026-05-06 13:59 | 48.04632 | 4.39303 | 35906 ft | 455 kts | 303° |
| 2026-05-06 13:59 | 48.08321 | 4.31616 | 35911 ft | 455 kts | 303° |
| 2026-05-06 14:00 | 48.12003 | 4.23925 | 35912 ft | 454 kts | 303° |
| 2026-05-06 14:00 | 48.15675 | 4.16227 | 35915 ft | 454 kts | 303° |
| 2026-05-06 14:01 | 48.19338 | 4.08535 | 35909 ft | 453 kts | 303° |
| 2026-05-06 14:01 | 48.22995 | 4.00830 | 35913 ft | 453 kts | 303° |
| 2026-05-06 14:02 | 48.26936 | 3.93458 | 35906 ft | 454 kts | 312° |
| 2026-05-06 14:02 | 48.31305 | 3.86599 | 35905 ft | 454 kts | 312° |
| 2026-05-06 14:03 | 48.35665 | 3.79727 | 35908 ft | 454 kts | 312° |
| 2026-05-06 14:03 | 48.40013 | 3.72845 | 35919 ft | 454 kts | 311° |
| 2026-05-06 14:04 | 48.44349 | 3.65944 | 35918 ft | 453 kts | 312° |
| 2026-05-06 14:04 | 48.48687 | 3.59043 | 35933 ft | 453 kts | 312° |
| 2026-05-06 14:05 | 48.53018 | 3.52154 | 35930 ft | 452 kts | 312° |
| 2026-05-06 14:05 | 48.57333 | 3.45256 | 35929 ft | 452 kts | 312° |
| 2026-05-06 14:06 | 48.61641 | 3.38339 | 35925 ft | 452 kts | 311° |
| 2026-05-06 14:06 | 48.65944 | 3.31402 | 35920 ft | 452 kts | 311° |
| 2026-05-06 14:07 | 48.70244 | 3.24458 | 35918 ft | 452 kts | 311° |
| 2026-05-06 14:07 | 48.74543 | 3.17505 | 35918 ft | 452 kts | 311° |
| 2026-05-06 14:08 | 48.78838 | 3.10542 | 35921 ft | 452 kts | 311° |
| 2026-05-06 14:08 | 48.83150 | 3.03607 | 35918 ft | 452 kts | 315° |
| 2026-05-06 14:09 | 48.88274 | 2.98073 | 35915 ft | 454 kts | 329° |
| 2026-05-06 14:09 | 48.91738 | 2.95109 | 35919 ft | 454 kts | 329° |
| 2026-05-06 14:10 | 48.97230 | 2.90349 | 35919 ft | 454 kts | 328° |
| 2026-05-06 14:10 | 49.02688 | 2.85475 | 35920 ft | 455 kts | 328° |
| 2026-05-06 14:11 | 49.08151 | 2.80618 | 35926 ft | 455 kts | 329° |
| 2026-05-06 14:11 | 49.13637 | 2.75797 | 35928 ft | 455 kts | 329° |
| 2026-05-06 14:12 | 49.19121 | 2.70963 | 35931 ft | 455 kts | 329° |
| 2026-05-06 14:12 | 49.24592 | 2.66118 | 35930 ft | 454 kts | 328° |
| 2026-05-06 14:13 | 49.30062 | 2.61260 | 35930 ft | 454 kts | 328° |
| 2026-05-06 14:13 | 49.35530 | 2.56389 | 35937 ft | 454 kts | 328° |
| 2026-05-06 14:14 | 49.40982 | 2.51516 | 35943 ft | 453 kts | 328° |
| 2026-05-06 14:14 | 49.46432 | 2.46630 | 35947 ft | 453 kts | 328° |
| 2026-05-06 14:15 | 49.51874 | 2.41737 | 35952 ft | 453 kts | 328° |
| 2026-05-06 14:15 | 49.57373 | 2.36998 | 35953 ft | 453 kts | 330° |
| 2026-05-06 14:16 | 49.62919 | 2.32390 | 35956 ft | 453 kts | 330° |
| 2026-05-06 14:16 | 49.68449 | 2.27756 | 35951 ft | 452 kts | 330° |
| 2026-05-06 14:17 | 49.73958 | 2.23070 | 35947 ft | 451 kts | 329° |
| 2026-05-06 14:17 | 49.79445 | 2.18368 | 35944 ft | 451 kts | 329° |
| 2026-05-06 14:18 | 49.84937 | 2.13662 | 35947 ft | 451 kts | 330° |
| 2026-05-06 14:18 | 49.90425 | 2.08970 | 35948 ft | 450 kts | 330° |
| 2026-05-06 14:19 | 49.95901 | 2.04258 | 35952 ft | 450 kts | 329° |
| 2026-05-06 14:19 | 50.01370 | 1.99541 | 35951 ft | 449 kts | 329° |
| 2026-05-06 14:20 | 50.06827 | 1.94825 | 35954 ft | 449 kts | 329° |
| 2026-05-06 14:20 | 50.12278 | 1.90094 | 35956 ft | 448 kts | 329° |
| 2026-05-06 14:21 | 50.17582 | 1.85005 | 35957 ft | 446 kts | 319° |
| 2026-05-06 14:21 | 50.22078 | 1.78376 | 35956 ft | 445 kts | 314° |
| 2026-05-06 14:22 | 50.26500 | 1.71621 | 35738 ft | 444 kts | 314° |
| 2026-05-06 14:22 | 50.28709 | 1.68249 | 35494 ft | 443 kts | 314° |
| 2026-05-06 14:22 | 50.30911 | 1.64884 | 35246 ft | 442 kts | 315° |
| 2026-05-06 14:23 | 50.33108 | 1.61523 | 35004 ft | 442 kts | 314° |
| 2026-05-06 14:23 | 50.35305 | 1.58158 | 34765 ft | 441 kts | 315° |
| 2026-05-06 14:23 | 50.37497 | 1.54797 | 34523 ft | 441 kts | 315° |
| 2026-05-06 14:23 | 50.39688 | 1.51431 | 33745 ft | 444 kts | 315° |
| 2026-05-06 14:24 | 50.41903 | 1.48020 | 32754 ft | 448 kts | 315° |
| 2026-05-06 14:24 | 50.44124 | 1.44591 | 32027 ft | 446 kts | 315° |
| 2026-05-06 14:24 | 50.46311 | 1.41204 | 31532 ft | 439 kts | 314° |
| 2026-05-06 14:24 | 50.48475 | 1.37848 | 30959 ft | 435 kts | 314° |
| 2026-05-06 14:25 | 50.50607 | 1.34501 | 30398 ft | 432 kts | 313° |
| 2026-05-06 14:25 | 50.52668 | 1.31108 | 29809 ft | 428 kts | 311° |
| 2026-05-06 14:25 | 50.54673 | 1.27677 | 29206 ft | 423 kts | 311° |
| 2026-05-06 14:25 | 50.56636 | 1.24260 | 28648 ft | 418 kts | 311° |
| 2026-05-06 14:26 | 50.58583 | 1.20897 | 28092 ft | 414 kts | 311° |
| 2026-05-06 14:26 | 50.60562 | 1.17644 | 27548 ft | 410 kts | 313° |
| 2026-05-06 14:26 | 50.62563 | 1.14484 | 26999 ft | 406 kts | 314° |
| 2026-05-06 14:26 | 50.64569 | 1.11373 | 26461 ft | 403 kts | 314° |
| 2026-05-06 14:27 | 50.66561 | 1.08287 | 25942 ft | 400 kts | 314° |
| 2026-05-06 14:27 | 50.68532 | 1.05216 | 25431 ft | 398 kts | 314° |
| 2026-05-06 14:27 | 50.70488 | 1.02144 | 24930 ft | 395 kts | 313° |
| 2026-05-06 14:27 | 50.72424 | 0.99081 | 24444 ft | 393 kts | 313° |
| 2026-05-06 14:28 | 50.74345 | 0.96027 | 23966 ft | 392 kts | 313° |
| 2026-05-06 14:28 | 50.76256 | 0.92977 | 23502 ft | 390 kts | 313° |
| 2026-05-06 14:28 | 50.78157 | 0.89939 | 23000 ft | 387 kts | 313° |
| 2026-05-06 14:28 | 50.80042 | 0.86921 | 22541 ft | 384 kts | 313° |
| 2026-05-06 14:29 | 50.81907 | 0.83928 | 22080 ft | 380 kts | 313° |
| 2026-05-06 14:29 | 50.83758 | 0.80956 | 21606 ft | 378 kts | 313° |
| 2026-05-06 14:29 | 50.85597 | 0.78008 | 21135 ft | 375 kts | 313° |
| 2026-05-06 14:29 | 50.87414 | 0.75097 | 20764 ft | 369 kts | 313° |
| 2026-05-06 14:30 | 50.89211 | 0.72218 | 20308 ft | 366 kts | 313° |
| 2026-05-06 14:30 | 50.90991 | 0.69362 | 19845 ft | 363 kts | 313° |
| 2026-05-06 14:30 | 50.92751 | 0.66530 | 19335 ft | 357 kts | 313° |
| 2026-05-06 14:30 | 50.94479 | 0.63745 | 18480 ft | 352 kts | 313° |
| 2026-05-06 14:31 | 50.96189 | 0.60989 | 17628 ft | 351 kts | 313° |
| 2026-05-06 14:31 | 50.97895 | 0.58236 | 17154 ft | 347 kts | 314° |
| 2026-05-06 14:31 | 50.99578 | 0.55517 | 16697 ft | 344 kts | 313° |
| 2026-05-06 14:31 | 51.01247 | 0.52821 | 16213 ft | 341 kts | 313° |
| 2026-05-06 14:32 | 51.02900 | 0.50144 | 15743 ft | 338 kts | 314° |
| 2026-05-06 14:32 | 51.04542 | 0.47478 | 15268 ft | 336 kts | 314° |
| 2026-05-06 14:32 | 51.06169 | 0.44836 | 14810 ft | 333 kts | 314° |
| 2026-05-06 14:32 | 51.07791 | 0.42231 | 14374 ft | 330 kts | 315° |
| 2026-05-06 14:33 | 51.08323 | 0.41400 | 14227 ft | 330 kts | 315° |
| 2026-05-06 14:33 | 51.08706 | 0.40810 | 14295 ft | 316 kts | 317° |
| 2026-05-06 14:33 | 51.10139 | 0.38871 | 16850 ft | 242 kts | 319° |
| 2026-05-06 14:33 | 51.11471 | 0.36980 | 16704 ft | 274 kts | 316° |
| 2026-05-06 14:34 | 51.12923 | 0.34822 | 15757 ft | 293 kts | 315° |
| 2026-05-06 14:34 | 51.14401 | 0.32490 | 14810 ft | 301 kts | 314° |
| 2026-05-06 14:34 | 51.15873 | 0.30126 | 14129 ft | 300 kts | 314° |
| 2026-05-06 14:34 | 51.17340 | 0.27790 | 13443 ft | 297 kts | 315° |
| 2026-05-06 14:35 | 51.18802 | 0.25500 | 12751 ft | 293 kts | 315° |
| 2026-05-06 14:35 | 51.20259 | 0.23244 | 12071 ft | 290 kts | 316° |
| 2026-05-06 14:35 | 51.21702 | 0.21025 | 11413 ft | 287 kts | 316° |
| 2026-05-06 14:35 | 51.23136 | 0.18830 | 10748 ft | 284 kts | 316° |
| 2026-05-06 14:36 | 51.24543 | 0.16674 | 10148 ft | 281 kts | 316° |
| 2026-05-06 14:36 | 51.25943 | 0.14522 | 9600 ft | 275 kts | 317° |
| 2026-05-06 14:36 | 51.27309 | 0.12407 | 8983 ft | 272 kts | 316° |
| 2026-05-06 14:36 | 51.28649 | 0.10308 | 8372 ft | 269 kts | 316° |
| 2026-05-06 14:37 | 51.29983 | 0.08211 | 7822 ft | 270 kts | 316° |
| 2026-05-06 14:37 | 51.31311 | 0.06112 | 7514 ft | 268 kts | 316° |
| 2026-05-06 14:37 | 51.32628 | 0.04023 | 7197 ft | 266 kts | 316° |
| 2026-05-06 14:37 | 51.33832 | 0.01804 | 6995 ft | 265 kts | 300° |
| 2026-05-06 14:38 | 51.34326 | -0.01033 | 7003 ft | 271 kts | 274° |
| 2026-05-06 14:38 | 51.34284 | -0.03040 | 7003 ft | 273 kts | 268° |
| 2026-05-06 14:38 | 51.34114 | -0.06066 | 6999 ft | 274 kts | 266° |
| 2026-05-06 14:38 | 51.33923 | -0.09088 | 7002 ft | 270 kts | 266° |
| 2026-05-06 14:39 | 51.33664 | -0.12939 | 6997 ft | 254 kts | 266° |
| 2026-05-06 14:39 | 51.33536 | -0.14792 | 7000 ft | 252 kts | 266° |
| 2026-05-06 14:39 | 51.33342 | -0.17577 | 7001 ft | 252 kts | 266° |
| 2026-05-06 14:39 | 51.33147 | -0.20362 | 6996 ft | 251 kts | 266° |
| 2026-05-06 14:40 | 51.32952 | -0.23136 | 6998 ft | 251 kts | 266° |
| 2026-05-06 14:40 | 51.32757 | -0.25912 | 6995 ft | 251 kts | 266° |
| 2026-05-06 14:40 | 51.32559 | -0.28681 | 6993 ft | 251 kts | 266° |
| 2026-05-06 14:40 | 51.32362 | -0.31458 | 6996 ft | 251 kts | 266° |
| 2026-05-06 14:41 | 51.32164 | -0.34233 | 6997 ft | 251 kts | 266° |
| 2026-05-06 14:41 | 51.31965 | -0.37005 | 6998 ft | 251 kts | 266° |
| 2026-05-06 14:41 | 51.31887 | -0.39774 | 6998 ft | 248 kts | 277° |
| 2026-05-06 14:41 | 51.32092 | -0.42506 | 6996 ft | 248 kts | 281° |
| 2026-05-06 14:42 | 51.32342 | -0.45228 | 6996 ft | 247 kts | 281° |
| 2026-05-06 14:42 | 51.32595 | -0.47950 | 6994 ft | 247 kts | 281° |
| 2026-05-06 14:42 | 51.32844 | -0.50674 | 6994 ft | 247 kts | 281° |
| 2026-05-06 14:42 | 51.33091 | -0.53395 | 6997 ft | 248 kts | 281° |
| 2026-05-06 14:43 | 51.33338 | -0.56120 | 6999 ft | 248 kts | 281° |
| 2026-05-06 14:43 | 51.33587 | -0.58844 | 6982 ft | 246 kts | 281° |
| 2026-05-06 14:43 | 51.33832 | -0.61544 | 6729 ft | 245 kts | 281° |
| 2026-05-06 14:43 | 51.34074 | -0.64231 | 6542 ft | 241 kts | 281° |
| 2026-05-06 14:44 | 51.34301 | -0.66811 | 6410 ft | 226 kts | 281° |
| 2026-05-06 14:44 | 51.34507 | -0.69242 | 6072 ft | 221 kts | 281° |
| 2026-05-06 14:44 | 51.34715 | -0.71680 | 5738 ft | 222 kts | 281° |
| 2026-05-06 14:45 | 51.35130 | -0.76545 | 5160 ft | 220 kts | 281° |
| 2026-05-06 14:45 | 51.35459 | -0.78917 | 4863 ft | 217 kts | 300° |
| 2026-05-06 14:45 | 51.36452 | -0.80613 | 4651 ft | 207 kts | 335° |
| 2026-05-06 14:45 | 51.37786 | -0.81111 | 4514 ft | 190 kts | 357° |
| 2026-05-06 14:46 | 51.39073 | -0.81153 | 4258 ft | 182 kts | 0° |
| 2026-05-06 14:46 | 51.40335 | -0.81131 | 4008 ft | 181 kts | 1° |
| 2026-05-06 14:46 | 51.41590 | -0.81103 | 3773 ft | 179 kts | 1° |
| 2026-05-06 14:46 | 51.42850 | -0.81071 | 3548 ft | 179 kts | 1° |
| 2026-05-06 14:47 | 51.44035 | -0.80668 | 3308 ft | 179 kts | 31° |
| 2026-05-06 14:47 | 51.44858 | -0.79169 | 3110 ft | 183 kts | 56° |
| 2026-05-06 14:47 | 51.45454 | -0.77366 | 2857 ft | 184 kts | 60° |
| 2026-05-06 14:47 | 51.46016 | -0.75499 | 2651 ft | 183 kts | 61° |
| 2026-05-06 14:48 | 51.46563 | -0.73662 | 2557 ft | 184 kts | 61° |
| 2026-05-06 14:48 | 51.47103 | -0.71843 | 2513 ft | 184 kts | 61° |
| 2026-05-06 14:48 | 51.47598 | -0.69947 | 2501 ft | 187 kts | 77° |
| 2026-05-06 14:48 | 51.47659 | -0.67823 | 2476 ft | 189 kts | 86° |
| 2026-05-06 14:49 | 51.47667 | -0.65727 | 2269 ft | 188 kts | 85° |
| 2026-05-06 14:49 | 51.47678 | -0.63600 | 2006 ft | 193 kts | 85° |
| 2026-05-06 14:49 | 51.47688 | -0.61481 | 1748 ft | 190 kts | 86° |
| 2026-05-06 14:49 | 51.47697 | -0.59431 | 1488 ft | 177 kts | 85° |
| 2026-05-06 14:50 | 51.47705 | -0.57536 | 1276 ft | 155 kts | 85° |
| 2026-05-06 14:50 | 51.47712 | -0.55918 | 1063 ft | 140 kts | 84° |
| 2026-05-06 14:50 | 51.47720 | -0.54398 | 857 ft | 135 kts | 85° |
| 2026-05-06 14:50 | 51.47728 | -0.52903 | 676 ft | 132 kts | 84° |
| 2026-05-06 14:51 | 51.47743 | -0.51419 | 474 ft | 132 kts | 82° |
| 2026-05-06 14:51 | 51.47751 | -0.49932 | 305 ft | 133 kts | 84° |
| 2026-05-06 14:51 | 51.47748 | -0.48454 | 154 ft | 133 kts | 84° |
| 2026-05-06 14:51 | 51.47761 | -0.47064 | 88 ft | 107 kts | 89° |
| 2026-05-06 14:52 | 51.47761 | -0.46143 | 87 ft | 58 kts | 90° |
| 2026-05-06 14:52 | 51.47760 | -0.45731 | 85 ft | 33 kts | 90° |
| 2026-05-06 14:52 | 51.47733 | -0.45499 | 88 ft | 18 kts | 135° |
| 2026-05-06 14:52 | 51.47654 | -0.45469 | 87 ft | 3 kts | 179° |
| 2026-05-06 14:53 | 51.47645 | -0.45469 | 88 ft | 3 kts | 179° |
| 2026-05-06 14:53 | 51.47629 | -0.45469 | 87 ft | 0 kts | 180° |
| 2026-05-06 14:54 | 51.47620 | -0.45469 | 87 ft | 5 kts | 182° |
| 2026-05-06 14:55 | 51.47595 | -0.45522 | 88 ft | 8 kts | 256° |
| 2026-05-06 14:55 | 51.47589 | -0.45624 | 87 ft | 11 kts | 270° |
| 2026-05-06 14:55 | 51.47590 | -0.45759 | 87 ft | 14 kts | 270° |
| 2026-05-06 14:55 | 51.47591 | -0.45928 | 87 ft | 17 kts | 271° |
| 2026-05-06 14:56 | 51.47593 | -0.46135 | 87 ft | 20 kts | 271° |
| 2026-05-06 14:56 | 51.47595 | -0.46377 | 89 ft | 23 kts | 271° |
| 2026-05-06 14:56 | 51.47598 | -0.46655 | 87 ft | 26 kts | 263° |
| 2026-05-06 14:56 | 51.47581 | -0.46965 | 88 ft | 29 kts | 268° |
| 2026-05-06 14:57 | 51.47581 | -0.47309 | 88 ft | 32 kts | 270° |
| 2026-05-06 14:57 | 51.47580 | -0.47660 | 88 ft | 31 kts | 270° |
| 2026-05-06 14:57 | 51.47581 | -0.47966 | 89 ft | 26 kts | 270° |
| 2026-05-06 14:57 | 51.47577 | -0.48252 | 87 ft | 26 kts | 269° |
| 2026-05-06 14:58 | 51.47576 | -0.48435 | 88 ft | 12 kts | 256° |
| 2026-05-06 14:58 | 51.47497 | -0.48481 | 87 ft | 14 kts | 180° |
| 2026-05-06 14:58 | 51.47389 | -0.48482 | 87 ft | 17 kts | 179° |
| 2026-05-06 14:58 | 51.47261 | -0.48478 | 87 ft | 20 kts | 179° |
| 2026-05-06 14:59 | 51.47114 | -0.48476 | 87 ft | 23 kts | 179° |
| 2026-05-06 14:59 | 51.46981 | -0.48473 | 87 ft | 13 kts | 179° |
| 2026-05-06 14:59 | 51.46911 | -0.48472 | 88 ft | 10 kts | 179° |
| 2026-05-06 14:59 | 51.46877 | -0.48512 | 87 ft | 5 kts | 269° |
| 2026-05-06 15:00 | 51.46876 | -0.48589 | 87 ft | 8 kts | 269° |
| 2026-05-06 15:00 | 51.46876 | -0.48697 | 90 ft | 9 kts | 269° |
| 2026-05-06 15:00 | 51.46875 | -0.48737 | 87 ft | 3 kts | 269° |
| 2026-05-06 15:00 | 51.46875 | -0.48745 | 87 ft | 1 kts | 268° |
| 2026-05-06 15:01 | 51.46878 | -0.48775 | 89 ft | 4 kts | 291° |
| 2026-05-06 15:01 | 51.46908 | -0.48790 | 87 ft | 6 kts | 360° |
| 2026-05-06 15:01 | 51.46922 | -0.48790 | 87 ft | 1 kts | 0° |
| 2026-05-06 15:01 | 51.46923 | -0.48790 | 87 ft | 0 kts | 0° |